Latest Coastal Weather Observations for Port Fairy

IDV60701

Issued at 1:32 am EST Monday 26 June 2017 (issued every 10 minutes, with the page automatically refreshed every 10 minutes)

About coastal observations | Map of coastal stations | Coastal observations for VIC | Marine services | Other Formats
Station Details ID: 090175 Name: PORT FAIRY AWS Lat: -38.39 Lon: 142.23 Height: 10.0 m
Data from the previous 72 hours. | See also: Recent months at Port Fairy
Date/Time
EST
Temp
°C
Wind Pressure Rain since
9am
mm
Weather Cloud Vis
km
Sea
Height
m
Swell
Dir  Spd
kts
Gust
kts
hPa Trend Height
m
Period
s
Dir
26/01:30am 10.3 WSW 7 10 1019.7 - 4.0 - - - - - - -
26/01:00am 11.1 SW 10 15 1019.4 - 4.0 - - - - - - -
26/12:30am 11.3 SSW 10 15 1019.2 - 4.0 - - - - - - -
26/12:00am 10.1 WNW 5 11 1019.0 - 4.0 - - - - - - -
 
Date/Time
EST
Temp
°C
Wind Pressure Rain since
9am
mm
Weather Cloud Vis
km
Sea
Height
m
Swell
Dir  Spd
kts
Gust
kts
hPa Trend Height
m
Period
s
Dir
25/11:30pm 11.6 WSW 10 13 1018.9 - 4.0 - - - - - - -
25/11:00pm 11.7 WSW 11 14 1018.7 - 4.0 - - - - - - -
25/10:30pm 11.6 WSW 10 13 1018.5 - 4.0 - - - - - - -
25/10:00pm 12.2 SW 12 17 1018.6 - 4.0 - - - - - - -
25/09:30pm 11.9 WSW 12 15 1018.4 - 4.0 - - - - - - -
25/09:00pm 12.2 SW 12 15 1018.1 - 4.0 - - - - - - -
25/08:30pm 12.3 SW 13 17 1017.8 - 4.0 - - - - - - -
25/08:00pm 12.1 SW 14 19 1017.4 - 4.0 - - - - - - -
25/07:30pm 11.7 WSW 13 20 1017.1 - 4.0 - - - - - - -
25/07:00pm 12.1 SW 14 20 1016.7 - 4.0 - - - - - - -
25/06:30pm 11.4 SW 15 27 1016.4 - 3.8 - - - - - - -
25/06:29pm 11.4 SW 15 27 1016.4 - 3.8 - - - - - - -
25/06:00pm 11.9 SW 14 20 1015.9 - 3.6 - - - - - - -
25/05:30pm 12.1 WSW 14 21 1015.5 - 3.6 - - - - - - -
25/05:00pm 11.5 SW 14 21 1015.2 - 3.6 - - - - - - -
25/04:30pm 11.2 WSW 14 20 1014.9 - 3.6 - - - - - - -
25/04:00pm 11.7 W 8 11 1014.7 - 3.2 - - - - - - -
25/03:30pm 11.1 WSW 14 21 1014.6 - 3.0 - - - - - - -
25/03:00pm 10.9 WNW 12 20 1014.4 - 2.8 Rain - - - - - -
25/02:30pm 11.7 WNW 10 17 1014.2 - 1.6 - - - - - - -
25/02:00pm 11.8 WNW 11 20 1014.2 - 1.2 - - - - - - -
25/01:30pm 12.9 WNW 12 21 1014.1 - 0.0 - - - - - - -
25/01:00pm 12.8 WNW 11 21 1014.3 - 0.0 - - - - - - -
25/12:30pm 12.8 NW 11 20 1014.5 - 0.0 - - - - - - -
25/12:00pm 12.2 NW 10 18 1014.9 - 0.0 - - - - - - -
25/11:30am 11.7 NW 9 14 1015.2 - 0.0 - - - - - - -
25/11:00am 11.1 NW 10 17 1015.4 - 0.0 - - - - - - -
25/10:30am 9.8 NNW 10 15 1015.4 - 0.0 - - - - - - -
25/10:00am 9.2 NNW 10 18 1015.5 - 0.0 - - - - - - -
25/09:30am 8.7 NNW 10 15 1015.4 - 0.0 - - - - - - -
25/09:00am 8.6 NNW 8 14 1015.1 - 0.4 - - - - - - -
25/08:30am 8.3 NNW 10 16 1015.0 - 0.4 - - - - - - -
25/08:00am 7.9 NNW 9 13 1015.0 - 0.4 - - - - - - -
25/07:30am 7.5 NNW 8 11 1015.1 - 0.4 - - - - - - -
25/07:00am 7.2 NNW 7 12 1014.9 - 0.4 - - - - - - -
25/06:30am 7.3 NNW 6 11 1014.9 - 0.4 - - - - - - -
25/06:00am 7.4 NNW 4 8 1014.7 - 0.4 - - - - - - -
25/05:30am 7.2 NNW 6 8 1014.8 - 0.4 - - - - - - -
25/05:00am 7.4 NW 5 8 1014.9 - 0.4 - - - - - - -
25/04:30am 7.4 NNW 6 8 1015.0 - 0.4 - - - - - - -
25/04:00am 7.3 NNW 6 11 1015.1 - 0.4 - - - - - - -
25/03:30am 7.3 NNW 7 12 1015.4 - 0.4 - - - - - - -
25/03:00am 7.1 NNW 6 8 1015.4 - 0.4 - - - - - - -
25/02:30am 6.5 NNW 9 14 1015.4 - 0.4 - - - - - - -
25/02:00am 6.3 NNW 8 14 1015.5 - 0.4 - - - - - - -
25/01:30am 6.9 NNW 8 12 1015.7 - 0.4 - - - - - - -
25/01:00am 6.9 NNW 7 11 1016.0 - 0.4 - - - - - - -
25/12:30am 7.1 NNW 7 11 1016.1 - 0.4 - - - - - - -
25/12:00am 6.8 NW 5 8 1016.0 - 0.4 - - - - - - -
 
Date/Time
EST
Temp
°C
Wind Pressure Rain since
9am
mm
Weather Cloud Vis
km
Sea
Height
m
Swell
Dir  Spd
kts
Gust
kts
hPa Trend Height
m
Period
s
Dir
24/11:30pm 6.6 NNW 8 11 1016.4 - 0.4 - - - - - - -
24/11:00pm 6.9 NNW 8 12 1016.4 - 0.4 - - - - - - -
24/10:30pm 6.7 NNW 8 12 1016.6 - 0.4 - - - - - - -
24/10:00pm 6.2 NNW 5 7 1016.7 - 0.4 - - - - - - -
24/09:30pm 6.9 NNW 6 9 1017.0 - 0.4 - - - - - - -
24/09:00pm 7.6 NNW 7 11 1017.0 - 0.4 Recent precip. - - - - - -
24/08:30pm 7.9 NNW 4 7 1017.1 - 0.4 - - - - - - -
24/08:00pm 7.6 NNW 4 8 1017.3 - 0.2 - - - - - - -
24/07:30pm 7.5 NNW 4 7 1017.3 - 0.2 - - - - - - -
24/07:00pm 7.8 NNW 4 6 1017.3 - 0.2 - - - - - - -
24/06:30pm 7.4 NNW 4 6 1017.2 - 0.2 - - - - - - -
24/06:00pm 8.2 NNW 3 4 1017.2 - 0.2 - - - - - - -
24/05:30pm 8.9 NW 3 5 1017.5 - 0.2 - - - - - - -
24/05:00pm 8.9 NNW 7 11 1017.3 - 0.2 - - - - - - -
24/04:30pm 9.4 NNW 6 8 1017.3 - 0.2 - - - - - - -
24/04:00pm 10.1 NW 3 6 1017.2 - 0.2 - - - - - - -
24/03:30pm 10.3 W 7 11 1017.3 - 0.2 - - - - - - -
24/03:00pm 9.9 W 7 12 1017.5 - 0.2 Recent precip. - - - - - -
24/02:30pm 11.2 WSW 5 11 1017.4 - 0.0 - - - - - - -
24/02:00pm 10.0 WNW 5 11 1017.7 - 0.0 - - - - - - -
24/01:30pm 10.9 NW 4 7 1017.8 - 0.0 - - - - - - -
24/01:00pm 10.9 WNW 4 7 1018.1 - 0.0 - - - - - - -
24/12:30pm 10.9 WNW 5 10 1018.3 - 0.0 - - - - - - -
24/12:00pm 12.0 NNW 6 11 1018.6 - 0.0 - - - - - - -
24/11:30am 11.7 NW 4 7 1018.9 - 0.0 - - - - - - -
24/11:00am 9.7 NW 5 8 1019.2 - 0.0 - - - - - - -
24/10:30am 10.1 WNW 9 15 1019.4 - 0.0 - - - - - - -
24/10:00am 10.4 WSW 5 8 1019.1 - 0.0 - - - - - - -
24/09:30am 9.2 NNW 4 7 1019.0 - 0.0 - - - - - - -
24/09:00am 9.2 WNW 4 9 1018.9 - 1.8 - - - - - - -
24/08:30am 10.0 WSW 8 11 1018.7 - 1.8 - - - - - - -
24/08:00am 9.6 WSW 7 11 1018.5 - 1.8 - - - - - - -
24/07:30am 9.7 WSW 14 18 1018.4 - 1.8 - - - - - - -
24/07:00am 10.0 SSW 11 16 1018.1 - 1.8 - - - - - - -
24/06:30am 9.3 SW 9 12 1017.6 - 1.8 - - - - - - -
24/06:00am 8.6 SW 5 7 1017.5 - 1.8 Recent precip. - - - - - -
24/05:30am 10.1 SW 14 18 1017.2 - 1.6 - - - - - - -
24/05:00am 9.8 SSW 11 16 1016.9 - 1.6 - - - - - - -
24/04:30am 10.2 SW 12 16 1016.8 - 1.6 - - - - - - -
24/04:00am 10.3 SW 13 18 1016.7 - 1.6 - - - - - - -
24/03:30am 10.1 SSW 13 17 1016.6 - 1.6 - - - - - - -
24/03:00am 10.5 SSW 15 21 1016.7 - 1.6 - - - - - - -
24/02:30am 10.6 SW 14 19 1016.8 - 1.6 - - - - - - -
24/02:00am 10.8 SW 16 21 1016.6 - 1.6 - - - - - - -
24/01:30am 10.7 SW 11 17 1016.3 - 1.6 - - - - - - -
24/01:00am 10.6 SW 14 18 1016.4 - 1.6 - - - - - - -
24/12:30am 10.9 SW 15 21 1016.4 - 1.6 - - - - - - -
24/12:00am 10.9 SSW 15 21 1016.3 - 1.6 - - - - - - -
 
Date/Time
EST
Temp
°C
Wind Pressure Rain since
9am
mm
Weather Cloud Vis
km
Sea
Height
m
Swell
Dir  Spd
kts
Gust
kts
hPa Trend Height
m
Period
s
Dir
23/11:30pm 10.7 SSW 17 22 1016.2 - 1.6 - - - - - - -
23/11:00pm 10.6 SSW 16 22 1016.1 - 1.6 - - - - - - -
23/10:30pm 10.6 SSW 17 24 1016.1 - 1.6 - - - - - - -
23/10:00pm 10.8 SSW 15 23 1015.9 - 1.2 - - - - - - -
23/09:30pm 11.2 SSW 17 23 1015.5 - 1.0 - - - - - - -
23/09:00pm 11.3 SW 19 25 1015.1 - 1.0 Recent precip. - - - - - -
23/08:30pm 12.5 WSW 17 22 1014.6 - 0.8 - - - - - - -
23/08:00pm 12.8 W 19 25 1014.4 - 0.8 - - - - - - -
23/07:30pm 12.5 WSW 19 26 1014.2 - 0.8 - - - - - - -
23/07:00pm 11.6 W 12 17 1013.9 - 0.8 - - - - - - -
23/06:30pm 12.0 WSW 17 20 1013.5 - 0.4 - - - - - - -
23/06:00pm 12.4 WSW 20 25 1013.4 - 0.2 Recent precip. - - - - - -
23/05:30pm 12.8 WSW 16 22 1013.0 - 0.0 - - - - - - -
23/05:24pm 13.0 W 11 22 1013.0 - 0.0 - - - - - - -
23/05:00pm 12.9 NW 6 10 1012.7 - 0.0 - - - - - - -
23/04:30pm 13.9 NW 6 9 1012.6 - 0.0 - - - - - - -
23/04:00pm 14.7 NW 8 14 1012.7 - 0.0 - - - - - - -
23/03:30pm 14.8 NW 8 13 1012.7 - 0.0 - - - - - - -
23/03:00pm 14.9 NW 8 13 1012.6 - 0.0 - - - - - - -
23/02:30pm 14.3 NW 7 12 1012.7 - 0.0 - - - - - - -
23/02:00pm 13.7 NW 10 17 1013.0 - 0.0 - - - - - - -
23/01:30pm 13.8 NW 10 15 1013.1 - 0.0 - - - - - - -
23/01:00pm 12.9 NW 11 17 1013.2 - 0.0 - - - - - - -
23/12:30pm 11.6 NNW 8 15 1013.6 - 0.0 - - - - - - -
23/12:00pm 11.5 NNW 11 21 1014.1 - 0.0 - - - - - - -
23/11:30am 11.3 NNW 9 17 1014.4 - 0.0 - - - - - - -
23/11:00am 10.3 NNW 10 16 1014.9 - 0.0 - - - - - - -
23/10:30am 10.6 NNW 11 17 1015.2 - 0.0 - - - - - - -
23/10:00am 10.5 NNW 9 16 1015.4 - 0.0 - - - - - - -
23/09:30am 9.7 NNW 9 14 1015.5 - 0.0 - - - - - - -
23/09:00am 8.8 N 8 13 1015.6 - 0.0 - - - - - - -
23/08:30am 7.7 NNW 7 10 1015.8 - 0.0 - - - - - - -
23/08:00am 7.2 NNW 8 12 1015.9 - 0.0 - - - - - - -
23/07:30am 7.2 N 9 14 1016.0 - 0.0 - - - - - - -
23/07:00am 7.3 N 7 10 1016.1 - 0.0 - - - - - - -
23/06:30am 7.1 N 6 9 1016.1 - 0.0 - - - - - - -
23/06:00am 7.0 N 5 7 1016.3 - 0.0 - - - - - - -
23/05:30am 7.3 N 5 8 1016.4 - 0.0 - - - - - - -
23/05:00am 7.6 N 6 8 1016.7 - 0.0 - - - - - - -
23/04:30am 8.1 N 8 13 1016.8 - 0.0 - - - - - - -
23/04:00am 8.1 N 7 11 1017.1 - 0.0 - - - - - - -
23/03:30am 8.3 N 8 11 1017.5 - 0.0 - - - - - - -
23/03:00am 8.0 N 6 9 1017.9 - 0.0 - - - - - - -
23/02:30am 8.1 N 6 9 1018.4 - 0.0 - - - - - - -
23/02:00am 8.3 N 7 9 1018.7 - 0.0 - - - - - - -

Other Formats:

Comma delimited format used in spreadsheet applications
http://www.bom.gov.au/fwo/IDV60701/IDV60701.94830.axf

JavaScript Object Notation format (JSON) in row-major order
http://www.bom.gov.au/fwo/IDV60701/IDV60701.94830.json